M-v Safiye Ana — TCCW9 — position and weather

sailwx.info

Track history (hours):
 
Tides and Currents Weather Stations Pressure Air Temp Water Temp Dewpoint Dewpoint Depression Visibility Wind Speed Wind Dir Waves Ship Positions

M-v Safiye Ana

Last reported at 2017-Oct-15 07:29 UTC. Time now 2017-Oct-16 22:45 UTC.
Position N 44°27' E 037°25'.

Length 87 m; draft 6 m.

Type: Cargo ship. MMSI: 271000770.

Date/timePositionNaut miles runAvg speedWind from/ knotsBaromVisibWave heightAir tempDewpointWater temp
2017-Oct-15 07:29N 44°27' E 037°25'5 9.9
2017-Oct-15 07:00N 44°29' E 037°31'5 9.9
2017-Oct-15 06:30N 44°31' E 037°38'5 9.8
2017-Oct-15 06:00N 44°34' E 037°43'5 9.7
2017-Oct-15 05:30N 44°37' E 037°48'4 7.5
2017-Oct-15 05:00N 44°41' E 037°50'4 6.5
2017-Oct-15 04:28N 44°44' E 037°47'0 0.1
2017-Oct-15 04:00N 44°44' E 037°47'0 0.0
2017-Oct-15 03:30N 44°44' E 037°47'0 0.0
2017-Oct-15 03:00N 44°44' E 037°47'0 0.0
2017-Oct-15 02:30N 44°44' E 037°47'0 0.0
2017-Oct-15 02:00N 44°44' E 037°47'0 0.0
2017-Oct-15 01:29N 44°44' E 037°47'0 0.0
2017-Oct-15 00:59N 44°44' E 037°47'0 0.0
2017-Oct-15 00:29N 44°44' E 037°47'0 0.0
2017-Oct-14 23:59N 44°44' E 037°47'0 0.0
2017-Oct-14 23:28N 44°44' E 037°47'0 0.0
2017-Oct-14 22:58N 44°44' E 037°47'0 0.0
2017-Oct-14 22:28N 44°44' E 037°47'0 0.0
2017-Oct-14 21:58N 44°44' E 037°47'0 0.0
2017-Oct-14 21:28N 44°44' E 037°47'0 0.0
2017-Oct-14 21:00N 44°44' E 037°47'0 0.0
2017-Oct-14 20:30N 44°44' E 037°47'0 0.0
2017-Oct-14 20:00N 44°44' E 037°47'0 0.0
2017-Oct-14 19:30N 44°44' E 037°47'0 0.0
2017-Oct-14 18:59N 44°44' E 037°47'0 0.0
2017-Oct-14 18:29N 44°44' E 037°47'0 0.0
2017-Oct-14 17:59N 44°44' E 037°47'0 0.0
2017-Oct-14 17:29N 44°44' E 037°47'0 0.0
2017-Oct-14 16:59N 44°44' E 037°47'0 0.0
2017-Oct-14 16:28N 44°44' E 037°47'0 0.0
2017-Oct-14 15:58N 44°44' E 037°47'0 0.0
2017-Oct-14 15:28N 44°44' E 037°47'0 0.0
2017-Oct-14 14:58N 44°44' E 037°47'0 0.0
2017-Oct-14 14:28N 44°44' E 037°47'0 0.0
2017-Oct-14 14:00N 44°44' E 037°47'0 0.0
2017-Oct-14 13:30N 44°44' E 037°47'0 0.0
2017-Oct-14 13:00N 44°44' E 037°47'0 0.0
2017-Oct-14 12:30N 44°44' E 037°47'0 0.0
2017-Oct-14 11:59N 44°44' E 037°47'0 0.0
2017-Oct-14 11:29N 44°44' E 037°47'0 0.0
2017-Oct-14 10:59N 44°44' E 037°47'0 0.0
2017-Oct-14 10:29N 44°44' E 037°47'0 0.0
2017-Oct-14 09:59N 44°44' E 037°47'0 0.0
2017-Oct-14 09:28N 44°44' E 037°47'0 0.0
2017-Oct-14 08:58N 44°44' E 037°47'0 0.0
2017-Oct-14 08:28N 44°44' E 037°47'0 0.0
2017-Oct-14 07:58N 44°44' E 037°47'0 0.0
2017-Oct-14 07:31N 44°44' E 037°47'0 0.0
2017-Oct-14 07:00N 44°44' E 037°47'0 0.0
2017-Oct-14 06:30N 44°44' E 037°47'0 0.1
2017-Oct-14 06:01N 44°44' E 037°47'2 4.9
2017-Oct-14 05:31N 44°42' E 037°49'4 7.8
2017-Oct-14 05:01N 44°38' E 037°52'4 7.6
2017-Oct-14 04:30N 44°35' E 037°52'4 7.4
2017-Oct-14 04:00N 44°31' E 037°51'4 7.4
2017-Oct-14 03:26N 44°27' E 037°48'3 5.8
2017-Oct-14 03:00N 44°27' E 037°51'3 5.0
2017-Oct-14 02:30N 44°29' E 037°52'3 5.1
2017-Oct-14 02:00N 44°30' E 037°49'5 9.4
2017-Oct-14 01:29N 44°29' E 037°42'433 8.9
2017-Oct-12 00:39N 40°52' E 029°12'0 0.0
2017-Oct-12 00:15N 40°52' E 029°12'0 0.0
2017-Oct-11 23:57N 40°52' E 029°12'0 0.0
2017-Oct-11 23:26N 40°52' E 029°12'0 0.0
2017-Oct-11 22:56N 40°52' E 029°12'0 0.0
2017-Oct-11 22:20N 40°52' E 029°12'0 0.0
2017-Oct-11 21:56N 40°52' E 029°12'0 0.0
2017-Oct-11 21:26N 40°52' E 029°12'0 0.0
2017-Oct-11 20:55N 40°52' E 029°12'0 0.0
2017-Oct-11 20:25N 40°52' E 029°12'0 0.3
2017-Oct-11 20:00N 40°52' E 029°12'3 5.8
2017-Oct-11 19:30N 40°50' E 029°09'3 6.2
2017-Oct-11 18:58N 40°47' E 029°08'510.8
2017-Oct-11 18:30N 40°46' E 029°15'510.4
2017-Oct-11 18:00N 40°45' E 029°22'  
2017-Oct-08 07:34N 40°44' E 029°24'0 0.3
2017-Oct-08 07:29N 40°44' E 029°24'4 8.2
2017-Oct-08 07:00N 40°43' E 029°19'510.0
2017-Oct-08 06:30N 40°43' E 029°12'510.3
2017-Oct-08 06:00N 40°43' E 029°06'510.2
2017-Oct-08 05:30N 40°43' E 028°59'303 9.2
2017-Oct-06 20:39N 37°38' E 023°51'110.4
2017-Oct-06 20:30N 37°38' E 023°49'5 9.7
2017-Oct-06 20:00N 37°39' E 023°43'510.3
2017-Oct-06 19:30N 37°44' E 023°40'510.3
2017-Oct-06 19:00N 37°48' E 023°37'5 9.6
2017-Oct-06 18:30N 37°50' E 023°32'510.3
2017-Oct-06 18:00N 37°50' E 023°25'510.1
2017-Oct-06 17:30N 37°51' E 023°19'5 9.8
2017-Oct-06 17:00N 37°53' E 023°13'510.0
2017-Oct-06 16:30N 37°54' E 023°07'3 5.1
2017-Oct-06 15:58N 37°55' E 023°03'0 0.0
2017-Oct-06 15:28N 37°55' E 023°03'0 0.0
2017-Oct-06 14:58N 37°55' E 023°03'0 0.0
2017-Oct-06 14:30N 37°55' E 023°03'0 0.0
2017-Oct-06 14:00N 37°55' E 023°03'0 0.0
2017-Oct-06 13:30N 37°55' E 023°03'0 0.0
2017-Oct-06 13:00N 37°55' E 023°03'0 0.0
2017-Oct-06 12:29N 37°55' E 023°03'0 0.0
2017-Oct-06 11:59N 37°55' E 023°03'0 0.0
2017-Oct-06 11:29N 37°55' E 023°03'0 0.0
2017-Oct-06 10:59N 37°55' E 023°03'0 0.0
2017-Oct-06 10:29N 37°55' E 023°03'0 0.0
2017-Oct-06 09:58N 37°55' E 023°03'0 0.0
2017-Oct-06 09:28N 37°55' E 023°03'0 0.0
2017-Oct-06 09:00N 37°55' E 023°03'0 0.0
2017-Oct-06 08:30N 37°55' E 023°03'0 0.0
2017-Oct-06 08:00N 37°55' E 023°03'0 0.0
2017-Oct-06 07:30N 37°55' E 023°03'0 0.0
2017-Oct-06 07:00N 37°55' E 023°03'0 0.0
2017-Oct-06 06:30N 37°55' E 023°03'0 0.0
2017-Oct-06 06:00N 37°55' E 023°03'0 0.0
2017-Oct-06 05:30N 37°55' E 023°03'0 0.0
2017-Oct-06 05:00N 37°55' E 023°03'0 0.0
2017-Oct-06 04:30N 37°55' E 023°03'0 0.0
2017-Oct-06 04:00N 37°55' E 023°03'0 0.0
2017-Oct-06 03:30N 37°55' E 023°03'0 0.0
2017-Oct-06 03:00N 37°55' E 023°03'0 0.0
2017-Oct-06 02:30N 37°55' E 023°03'0 0.0
2017-Oct-06 02:00N 37°55' E 023°03'0 0.0
2017-Oct-06 01:30N 37°55' E 023°03'0 0.0
2017-Oct-06 01:00N 37°55' E 023°03'0 0.0
2017-Oct-06 00:30N 37°55' E 023°03'0 0.0
2017-Oct-06 00:00N 37°55' E 023°03'0 0.0
2017-Oct-05 23:30N 37°55' E 023°03'0 0.0
2017-Oct-05 23:00N 37°55' E 023°03'0 0.0
2017-Oct-05 22:30N 37°55' E 023°03'0 0.0
2017-Oct-05 22:00N 37°55' E 023°03'0 0.0
2017-Oct-05 21:30N 37°55' E 023°03'0 0.0
2017-Oct-05 21:00N 37°55' E 023°03'0 0.0
2017-Oct-05 20:30N 37°55' E 023°03'0 0.0
2017-Oct-05 20:00N 37°55' E 023°03'0 0.0
2017-Oct-05 19:30N 37°55' E 023°03'0 0.0
2017-Oct-05 19:00N 37°55' E 023°03'0 0.0
2017-Oct-05 18:30N 37°55' E 023°03'0 0.0
2017-Oct-05 18:00N 37°55' E 023°03'0 0.0
2017-Oct-05 17:30N 37°55' E 023°03'0 0.0
2017-Oct-05 17:00N 37°55' E 023°03'0 0.0
2017-Oct-05 15:30N 37°55' E 023°03'0 0.0
2017-Oct-05 15:00N 37°55' E 023°03'0 0.0
2017-Oct-05 14:30N 37°55' E 023°03'0 0.0
2017-Oct-05 14:00N 37°55' E 023°03'0 0.0
2017-Oct-05 13:30N 37°55' E 023°03'0 0.0
2017-Oct-05 13:00N 37°55' E 023°03'0 0.0
2017-Oct-05 12:30N 37°55' E 023°03'0 0.0
2017-Oct-05 12:00N 37°55' E 023°03'0 0.0
2017-Oct-05 11:30N 37°55' E 023°03'0 0.0
2017-Oct-05 11:00N 37°55' E 023°03'0 0.0
2017-Oct-05 10:30N 37°55' E 023°03'0 0.3
2017-Oct-05 10:00N 37°55' E 023°03'0 0.7
2017-Oct-05 09:30N 37°55' E 023°03'0 0.0
2017-Oct-05 08:21N 37°55' E 023°03'0 0.0
2017-Oct-05 08:01N 37°55' E 023°03'0 0.0
2017-Oct-05 07:30N 37°55' E 023°03'  
Track history (hours):
 
Tides and Currents Weather Stations Pressure Air Temp Water Temp Dewpoint Dewpoint Depression Visibility Wind Speed Wind Dir Waves Ship Positions

M-v Safiye Ana

Last reported at 2017-Oct-15 07:29 UTC. Time now 2017-Oct-16 22:45 UTC.
Position N 44°27' E 037°25'.

Length 87 m; draft 6 m.

Type: Cargo ship. MMSI: 271000770.

Date/timePositionNaut miles runAvg speedWind from/ knotsBaromVisibWave heightAir tempDewpointWater temp
2017-Oct-15 07:29N 44°27' E 037°25'5 9.9
2017-Oct-15 07:00N 44°29' E 037°31'5 9.9
2017-Oct-15 06:30N 44°31' E 037°38'5 9.8
2017-Oct-15 06:00N 44°34' E 037°43'5 9.7
2017-Oct-15 05:30N 44°37' E 037°48'4 7.5
2017-Oct-15 05:00N 44°41' E 037°50'4 6.5
2017-Oct-15 04:28N 44°44' E 037°47'0 0.1
2017-Oct-15 04:00N 44°44' E 037°47'0 0.0
2017-Oct-15 03:30N 44°44' E 037°47'0 0.0
2017-Oct-15 03:00N 44°44' E 037°47'0 0.0
2017-Oct-15 02:30N 44°44' E 037°47'0 0.0
2017-Oct-15 02:00N 44°44' E 037°47'0 0.0
2017-Oct-15 01:29N 44°44' E 037°47'0 0.0
2017-Oct-15 00:59N 44°44' E 037°47'0 0.0
2017-Oct-15 00:29N 44°44' E 037°47'0 0.0
2017-Oct-14 23:59N 44°44' E 037°47'0 0.0
2017-Oct-14 23:28N 44°44' E 037°47'0 0.0
2017-Oct-14 22:58N 44°44' E 037°47'0 0.0
2017-Oct-14 22:28N 44°44' E 037°47'0 0.0
2017-Oct-14 21:58N 44°44' E 037°47'0 0.0
2017-Oct-14 21:28N 44°44' E 037°47'0 0.0
2017-Oct-14 21:00N 44°44' E 037°47'0 0.0
2017-Oct-14 20:30N 44°44' E 037°47'0 0.0
2017-Oct-14 20:00N 44°44' E 037°47'0 0.0
2017-Oct-14 19:30N 44°44' E 037°47'0 0.0
2017-Oct-14 18:59N 44°44' E 037°47'0 0.0
2017-Oct-14 18:29N 44°44' E 037°47'0 0.0
2017-Oct-14 17:59N 44°44' E 037°47'0 0.0
2017-Oct-14 17:29N 44°44' E 037°47'0 0.0
2017-Oct-14 16:59N 44°44' E 037°47'0 0.0
2017-Oct-14 16:28N 44°44' E 037°47'0 0.0
2017-Oct-14 15:58N 44°44' E 037°47'0 0.0
2017-Oct-14 15:28N 44°44' E 037°47'0 0.0
2017-Oct-14 14:58N 44°44' E 037°47'0 0.0
2017-Oct-14 14:28N 44°44' E 037°47'0 0.0
2017-Oct-14 14:00N 44°44' E 037°47'0 0.0
2017-Oct-14 13:30N 44°44' E 037°47'0 0.0
2017-Oct-14 13:00N 44°44' E 037°47'0 0.0
2017-Oct-14 12:30N 44°44' E 037°47'0 0.0
2017-Oct-14 11:59N 44°44' E 037°47'0 0.0
2017-Oct-14 11:29N 44°44' E 037°47'0 0.0
2017-Oct-14 10:59N 44°44' E 037°47'0 0.0
2017-Oct-14 10:29N 44°44' E 037°47'0 0.0
2017-Oct-14 09:59N 44°44' E 037°47'0 0.0
2017-Oct-14 09:28N 44°44' E 037°47'0 0.0
2017-Oct-14 08:58N 44°44' E 037°47'0 0.0
2017-Oct-14 08:28N 44°44' E 037°47'0 0.0
2017-Oct-14 07:58N 44°44' E 037°47'0 0.0
2017-Oct-14 07:31N 44°44' E 037°47'0 0.0
2017-Oct-14 07:00N 44°44' E 037°47'0 0.0
2017-Oct-14 06:30N 44°44' E 037°47'0 0.1
2017-Oct-14 06:01N 44°44' E 037°47'2 4.9
2017-Oct-14 05:31N 44°42' E 037°49'4 7.8
2017-Oct-14 05:01N 44°38' E 037°52'4 7.6
2017-Oct-14 04:30N 44°35' E 037°52'4 7.4
2017-Oct-14 04:00N 44°31' E 037°51'4 7.4
2017-Oct-14 03:26N 44°27' E 037°48'3 5.8
2017-Oct-14 03:00N 44°27' E 037°51'3 5.0
2017-Oct-14 02:30N 44°29' E 037°52'3 5.1
2017-Oct-14 02:00N 44°30' E 037°49'5 9.4
2017-Oct-14 01:29N 44°29' E 037°42'433 8.9
2017-Oct-12 00:39N 40°52' E 029°12'0 0.0
2017-Oct-12 00:15N 40°52' E 029°12'0 0.0
2017-Oct-11 23:57N 40°52' E 029°12'0 0.0
2017-Oct-11 23:26N 40°52' E 029°12'0 0.0
2017-Oct-11 22:56N 40°52' E 029°12'0 0.0
2017-Oct-11 22:20N 40°52' E 029°12'0 0.0
2017-Oct-11 21:56N 40°52' E 029°12'0 0.0
2017-Oct-11 21:26N 40°52' E 029°12'0 0.0
2017-Oct-11 20:55N 40°52' E 029°12'0 0.0
2017-Oct-11 20:25N 40°52' E 029°12'0 0.3
2017-Oct-11 20:00N 40°52' E 029°12'3 5.8
2017-Oct-11 19:30N 40°50' E 029°09'3 6.2
2017-Oct-11 18:58N 40°47' E 029°08'510.8
2017-Oct-11 18:30N 40°46' E 029°15'510.4
2017-Oct-11 18:00N 40°45' E 029°22'  
2017-Oct-08 07:34N 40°44' E 029°24'0 0.3
2017-Oct-08 07:29N 40°44' E 029°24'4 8.2
2017-Oct-08 07:00N 40°43' E 029°19'510.0
2017-Oct-08 06:30N 40°43' E 029°12'510.3
2017-Oct-08 06:00N 40°43' E 029°06'510.2
2017-Oct-08 05:30N 40°43' E 028°59'303 9.2
2017-Oct-06 20:39N 37°38' E 023°51'110.4
2017-Oct-06 20:30N 37°38' E 023°49'5 9.7
2017-Oct-06 20:00N 37°39' E 023°43'510.3
2017-Oct-06 19:30N 37°44' E 023°40'510.3
2017-Oct-06 19:00N 37°48' E 023°37'5 9.6
2017-Oct-06 18:30N 37°50' E 023°32'510.3
2017-Oct-06 18:00N 37°50' E 023°25'510.1
2017-Oct-06 17:30N 37°51' E 023°19'5 9.8
2017-Oct-06 17:00N 37°53' E 023°13'510.0
2017-Oct-06 16:30N 37°54' E 023°07'3 5.1
2017-Oct-06 15:58N 37°55' E 023°03'0 0.0
2017-Oct-06 15:28N 37°55' E 023°03'0 0.0
2017-Oct-06 14:58N 37°55' E 023°03'0 0.0
2017-Oct-06 14:30N 37°55' E 023°03'0 0.0
2017-Oct-06 14:00N 37°55' E 023°03'0 0.0
2017-Oct-06 13:30N 37°55' E 023°03'0 0.0
2017-Oct-06 13:00N 37°55' E 023°03'0 0.0
2017-Oct-06 12:29N 37°55' E 023°03'0 0.0
2017-Oct-06 11:59N 37°55' E 023°03'0 0.0
2017-Oct-06 11:29N 37°55' E 023°03'0 0.0
2017-Oct-06 10:59N 37°55' E 023°03'0 0.0
2017-Oct-06 10:29N 37°55' E 023°03'0 0.0
2017-Oct-06 09:58N 37°55' E 023°03'0 0.0
2017-Oct-06 09:28N 37°55' E 023°03'0 0.0
2017-Oct-06 09:00N 37°55' E 023°03'0 0.0
2017-Oct-06 08:30N 37°55' E 023°03'0 0.0
2017-Oct-06 08:00N 37°55' E 023°03'0 0.0
2017-Oct-06 07:30N 37°55' E 023°03'0 0.0
2017-Oct-06 07:00N 37°55' E 023°03'0 0.0
2017-Oct-06 06:30N 37°55' E 023°03'0 0.0
2017-Oct-06 06:00N 37°55' E 023°03'0 0.0
2017-Oct-06 05:30N 37°55' E 023°03'0 0.0
2017-Oct-06 05:00N 37°55' E 023°03'0 0.0
2017-Oct-06 04:30N 37°55' E 023°03'0 0.0
2017-Oct-06 04:00N 37°55' E 023°03'0 0.0
2017-Oct-06 03:30N 37°55' E 023°03'0 0.0
2017-Oct-06 03:00N 37°55' E 023°03'0 0.0
2017-Oct-06 02:30N 37°55' E 023°03'0 0.0
2017-Oct-06 02:00N 37°55' E 023°03'0 0.0
2017-Oct-06 01:30N 37°55' E 023°03'0 0.0
2017-Oct-06 01:00N 37°55' E 023°03'0 0.0
2017-Oct-06 00:30N 37°55' E 023°03'0 0.0
2017-Oct-06 00:00N 37°55' E 023°03'0 0.0
2017-Oct-05 23:30N 37°55' E 023°03'0 0.0
2017-Oct-05 23:00N 37°55' E 023°03'0 0.0
2017-Oct-05 22:30N 37°55' E 023°03'0 0.0
2017-Oct-05 22:00N 37°55' E 023°03'0 0.0
2017-Oct-05 21:30N 37°55' E 023°03'0 0.0
2017-Oct-05 21:00N 37°55' E 023°03'0 0.0
2017-Oct-05 20:30N 37°55' E 023°03'0 0.0
2017-Oct-05 20:00N 37°55' E 023°03'0 0.0
2017-Oct-05 19:30N 37°55' E 023°03'0 0.0
2017-Oct-05 19:00N 37°55' E 023°03'0 0.0
2017-Oct-05 18:30N 37°55' E 023°03'0 0.0
2017-Oct-05 18:00N 37°55' E 023°03'0 0.0
2017-Oct-05 17:30N 37°55' E 023°03'0 0.0
2017-Oct-05 17:00N 37°55' E 023°03'0 0.0
2017-Oct-05 15:30N 37°55' E 023°03'0 0.0
2017-Oct-05 15:00N 37°55' E 023°03'0 0.0
2017-Oct-05 14:30N 37°55' E 023°03'0 0.0
2017-Oct-05 14:00N 37°55' E 023°03'0 0.0
2017-Oct-05 13:30N 37°55' E 023°03'0 0.0
2017-Oct-05 13:00N 37°55' E 023°03'0 0.0
2017-Oct-05 12:30N 37°55' E 023°03'0 0.0
2017-Oct-05 12:00N 37°55' E 023°03'0 0.0
2017-Oct-05 11:30N 37°55' E 023°03'0 0.0
2017-Oct-05 11:00N 37°55' E 023°03'0 0.0
2017-Oct-05 10:30N 37°55' E 023°03'0 0.3
2017-Oct-05 10:00N 37°55' E 023°03'0 0.7
2017-Oct-05 09:30N 37°55' E 023°03'0 0.0
2017-Oct-05 08:21N 37°55' E 023°03'0 0.0
2017-Oct-05 08:01N 37°55' E 023°03'0 0.0
2017-Oct-05 07:30N 37°55' E 023°03'  

Dump ship's entire track history